createdAt,value
2018-10-07T00:02:10.347Z,24.33
2018-10-07T00:04:37.826Z,23.70
2018-10-07T00:07:05.739Z,24.60
2018-10-07T00:09:33.349Z,23.00
2018-10-07T00:12:00.894Z,23.20
2018-10-07T00:14:28.471Z,23.90
2018-10-07T00:16:55.967Z,23.60
2018-10-07T00:19:23.438Z,25.00
2018-10-07T00:21:50.940Z,24.90
2018-10-07T00:24:18.388Z,24.90
2018-10-07T00:26:47.334Z,25.60
2018-10-07T00:29:15.126Z,25.23
2018-10-07T00:31:48.396Z,25.70
2018-10-07T00:34:15.843Z,27.50
2018-10-07T00:36:43.372Z,26.27
2018-10-07T00:39:11.395Z,26.00
2018-10-07T00:41:38.922Z,26.17
2018-10-07T00:44:06.394Z,26.43
2018-10-07T00:46:34.418Z,26.90
2018-10-07T00:49:02.389Z,27.30
2018-10-07T00:51:29.878Z,27.83
2018-10-07T00:53:57.361Z,26.87
2018-10-07T00:56:24.818Z,28.27
2018-10-07T00:58:52.278Z,28.53
2018-10-07T01:01:19.779Z,28.83
2018-10-07T01:03:47.206Z,29.90
2018-10-07T01:06:14.675Z,28.57
2018-10-07T01:08:43.279Z,28.63
2018-10-07T01:11:10.750Z,28.90
2018-10-07T01:13:38.389Z,29.97
2018-10-07T01:16:05.999Z,29.97
2018-10-07T01:18:33.475Z,31.50
2018-10-07T01:21:01.176Z,31.90
2018-10-07T01:23:28.718Z,33.53
2018-10-07T01:25:56.287Z,31.23
2018-10-07T01:28:23.780Z,34.80
2018-10-07T01:30:51.274Z,36.87
2018-10-07T01:33:18.862Z,36.83
2018-10-07T01:35:46.459Z,37.60
2018-10-07T01:38:14.052Z,39.87
2018-10-07T01:40:41.610Z,40.37
2018-10-07T01:43:09.169Z,43.37
2018-10-07T01:45:36.684Z,42.93
2018-10-07T01:48:04.257Z,43.60
2018-10-07T01:50:31.713Z,45.60
2018-10-07T01:52:59.186Z,47.67
2018-10-07T01:55:26.638Z,48.30
2018-10-07T01:57:54.136Z,50.53
2018-10-07T02:00:21.708Z,51.37
2018-10-07T02:02:49.159Z,49.90
2018-10-07T02:05:16.664Z,51.03
2018-10-07T02:07:44.204Z,51.10
2018-10-07T02:10:11.641Z,47.70
2018-10-07T02:12:39.128Z,45.20
2018-10-07T02:15:06.577Z,43.53
2018-10-07T02:17:34.081Z,40.00
2018-10-07T02:20:04.099Z,31.20
2018-10-07T02:22:31.581Z,28.80
2018-10-07T02:24:59.040Z,29.57
2018-10-07T02:27:26.597Z,23.53
2018-10-07T02:29:54.070Z,21.33
2018-10-07T02:32:21.536Z,19.80
2018-10-07T02:34:48.999Z,16.10
2018-10-07T02:37:16.528Z,14.20
2018-10-07T02:39:43.967Z,11.90
2018-10-07T02:42:11.435Z,13.10
2018-10-07T02:44:38.896Z,12.57
2018-10-07T02:47:06.732Z,12.37
2018-10-07T02:49:34.211Z,10.60
2018-10-07T02:52:01.895Z,8.50
2018-10-07T02:54:29.548Z,7.70
2018-10-07T02:56:57.104Z,6.10
2018-10-07T02:59:24.970Z,6.57
2018-10-07T03:01:52.599Z,6.40
2018-10-07T03:04:20.068Z,5.37
2018-10-07T03:06:47.670Z,5.80
2018-10-07T03:09:15.134Z,5.97
2018-10-07T03:11:42.622Z,6.13
2018-10-07T03:14:10.124Z,5.13
2018-10-07T03:16:37.609Z,4.03
2018-10-07T03:19:05.052Z,5.03
2018-10-07T03:21:32.823Z,3.83
2018-10-07T03:24:00.275Z,3.50
2018-10-07T03:26:27.756Z,3.10
2018-10-07T03:28:55.683Z,3.27
2018-10-07T03:31:23.146Z,2.70
2018-10-07T03:33:50.617Z,3.00
2018-10-07T03:36:18.100Z,3.40
2018-10-07T03:38:45.563Z,3.63
2018-10-07T03:41:13.085Z,3.57
2018-10-07T03:43:40.544Z,3.13
2018-10-07T03:46:07.995Z,2.67
2018-10-07T03:48:35.487Z,2.70
2018-10-07T03:51:06.875Z,1.80
2018-10-07T03:53:34.335Z,2.27
2018-10-07T03:56:01.788Z,2.57
2018-10-07T03:58:29.293Z,1.77
2018-10-07T04:00:56.800Z,1.80
2018-10-07T04:03:24.301Z,1.63
2018-10-07T04:05:51.738Z,1.77
2018-10-07T04:08:19.239Z,2.10
2018-10-07T04:10:46.747Z,1.70
2018-10-07T04:13:14.227Z,1.40
2018-10-07T04:15:41.727Z,1.80
2018-10-07T04:18:09.447Z,1.40
2018-10-07T04:20:36.892Z,1.50
2018-10-07T04:23:04.441Z,1.30
2018-10-07T04:25:31.892Z,1.30
2018-10-07T04:27:59.359Z,1.50
2018-10-07T04:30:26.794Z,1.23
2018-10-07T04:32:54.252Z,1.93
2018-10-07T04:35:21.955Z,1.60
2018-10-07T04:37:49.489Z,1.40
2018-10-07T04:40:16.987Z,1.30
2018-10-07T04:42:44.504Z,1.90
2018-10-07T04:45:11.950Z,1.80
2018-10-07T04:47:39.407Z,1.30
2018-10-07T04:50:06.889Z,1.50
2018-10-07T04:52:34.347Z,1.63
2018-10-07T04:55:01.853Z,1.53
2018-10-07T04:57:29.315Z,1.70
2018-10-07T04:59:56.785Z,1.80
2018-10-07T05:02:24.255Z,2.00
2018-10-07T05:04:51.754Z,1.70
2018-10-07T05:07:19.441Z,1.47
2018-10-07T05:09:47.027Z,2.17
2018-10-07T05:12:15.886Z,1.47
2018-10-07T05:14:43.419Z,1.67
2018-10-07T05:17:11.458Z,1.43
2018-10-07T05:19:38.959Z,1.50
2018-10-07T05:22:06.427Z,2.37
2018-10-07T05:24:33.919Z,1.83
2018-10-07T05:27:01.491Z,1.37
2018-10-07T05:29:28.975Z,1.67
2018-10-07T05:31:56.445Z,2.57
2018-10-07T05:34:23.894Z,1.80
2018-10-07T05:36:51.320Z,2.30
2018-10-07T05:39:18.943Z,2.27
2018-10-07T05:41:46.394Z,2.10
2018-10-07T05:44:13.883Z,2.20
2018-10-07T05:46:41.419Z,2.43
2018-10-07T05:49:08.899Z,2.10
2018-10-07T05:51:36.410Z,1.70
2018-10-07T05:54:03.899Z,2.17
2018-10-07T05:56:31.384Z,2.00
2018-10-07T05:58:58.946Z,1.60
2018-10-07T06:01:31.243Z,2.07
2018-10-07T06:04:09.917Z,1.43
2018-10-07T06:06:37.892Z,1.17
2018-10-07T06:09:08.523Z,1.30
2018-10-07T06:11:36.040Z,1.30
2018-10-07T06:14:03.568Z,1.20
2018-10-07T06:16:31.055Z,1.03
2018-10-07T06:18:58.595Z,1.37
2018-10-07T06:21:26.106Z,1.37
2018-10-07T06:23:53.683Z,1.43
2018-10-07T06:26:21.237Z,1.40
2018-10-07T06:28:48.765Z,1.30
2018-10-07T06:31:16.361Z,1.23
2018-10-07T06:33:43.919Z,1.30
2018-10-07T06:36:11.440Z,1.37
2018-10-07T06:38:38.953Z,0.97
2018-10-07T06:41:06.516Z,5.03
2018-10-07T06:43:33.999Z,1.30
2018-10-07T06:46:01.484Z,1.20
2018-10-07T06:48:28.935Z,1.20
2018-10-07T06:50:56.464Z,0.93
2018-10-07T06:53:23.987Z,1.20
2018-10-07T06:55:51.506Z,2.20
2018-10-07T06:58:19.032Z,1.00
2018-10-07T07:00:46.503Z,1.07
2018-10-07T07:03:13.956Z,1.10
2018-10-07T07:05:41.441Z,0.90
2018-10-07T07:08:08.966Z,1.20
2018-10-07T07:10:36.440Z,1.50
2018-10-07T07:13:03.950Z,1.30
2018-10-07T07:15:31.510Z,1.30
2018-10-07T07:17:58.971Z,1.20
2018-10-07T07:20:26.439Z,1.30
2018-10-07T07:22:53.882Z,0.83
2018-10-07T07:25:21.356Z,1.10
2018-10-07T07:27:48.992Z,1.20
2018-10-07T07:30:16.552Z,1.83
2018-10-07T07:32:44.014Z,1.27
2018-10-07T07:35:11.487Z,1.10
2018-10-07T07:37:38.918Z,1.50
2018-10-07T07:40:06.435Z,2.10
2018-10-07T07:42:34.043Z,1.20
2018-10-07T07:45:01.530Z,1.40
2018-10-07T07:47:29.043Z,1.07
2018-10-07T07:49:56.616Z,1.70
2018-10-07T07:52:24.128Z,1.90
2018-10-07T07:54:51.569Z,1.17
2018-10-07T07:57:19.192Z,1.17
2018-10-07T07:59:46.750Z,1.50
2018-10-07T08:02:14.309Z,1.10
2018-10-07T08:04:41.768Z,1.40
2018-10-07T08:07:09.302Z,1.67
2018-10-07T08:09:36.737Z,1.27
2018-10-07T08:12:04.341Z,1.07
2018-10-07T08:14:31.901Z,1.00
2018-10-07T08:16:59.562Z,0.90
2018-10-07T08:19:27.019Z,0.80
2018-10-07T08:21:54.515Z,1.20
2018-10-07T08:24:22.035Z,1.20
2018-10-07T08:26:49.715Z,1.57
2018-10-07T08:29:17.192Z,1.40
2018-10-07T08:31:44.861Z,1.33
2018-10-07T08:34:12.482Z,1.37
2018-10-07T08:36:39.959Z,1.27
2018-10-07T08:39:08.233Z,1.00
2018-10-07T08:41:36.152Z,1.20
2018-10-07T08:44:03.669Z,1.00
2018-10-07T08:46:31.192Z,1.00
2018-10-07T08:48:58.753Z,1.17
2018-10-07T08:51:26.257Z,1.53
2018-10-07T08:53:53.680Z,1.00
2018-10-07T08:56:21.157Z,1.07
2018-10-07T08:58:48.620Z,1.00
2018-10-07T09:01:16.178Z,1.03
2018-10-07T09:03:43.639Z,1.20
2018-10-07T09:06:11.115Z,1.33
2018-10-07T09:08:38.585Z,1.00
2018-10-07T09:11:06.172Z,1.00
2018-10-07T09:13:34.062Z,1.17
2018-10-07T09:16:02.038Z,0.83
2018-10-07T09:18:29.565Z,1.00
2018-10-07T09:20:57.081Z,1.00
2018-10-07T09:23:24.587Z,0.90
2018-10-07T09:25:52.076Z,1.17
2018-10-07T09:28:19.673Z,0.90
2018-10-07T09:30:47.165Z,0.97
2018-10-07T09:33:14.652Z,0.90
2018-10-07T09:35:42.128Z,0.70
2018-10-07T09:38:09.600Z,1.07
2018-10-07T09:40:37.074Z,1.00
2018-10-07T09:43:04.646Z,1.40
2018-10-07T09:45:32.087Z,1.00
2018-10-07T09:47:59.717Z,1.30
2018-10-07T09:50:27.208Z,1.13
2018-10-07T09:52:54.722Z,1.30
2018-10-07T09:55:22.170Z,1.20
2018-10-07T09:57:49.708Z,1.50
2018-10-07T10:00:23.970Z,1.40
2018-10-07T10:02:51.483Z,1.10
2018-10-07T10:05:18.940Z,1.00
2018-10-07T10:07:46.496Z,0.93
2018-10-07T10:10:13.997Z,1.10
2018-10-07T10:12:41.502Z,1.00
2018-10-07T10:15:08.992Z,1.10
2018-10-07T10:17:36.563Z,1.00
2018-10-07T10:20:06.428Z,0.90
2018-10-07T10:23:10.544Z,1.87
2018-10-07T10:25:50.353Z,1.20
2018-10-07T10:28:20.761Z,1.30
2018-10-07T10:31:31.640Z,1.10
2018-10-07T10:36:31.445Z,1.07
2018-10-07T10:39:04.639Z,1.10
2018-10-07T10:41:39.484Z,1.20
2018-10-07T10:44:17.425Z,1.17
2018-10-07T10:47:28.664Z,1.07
2018-10-07T10:50:11.452Z,0.90
2018-10-07T10:52:49.905Z,1.20
2018-10-07T10:55:31.574Z,1.07
2018-10-07T10:58:01.879Z,0.80
2018-10-07T11:00:40.504Z,1.40
2018-10-07T11:03:17.187Z,1.07
2018-10-07T11:05:52.274Z,1.20
2018-10-07T11:08:32.599Z,1.10
2018-10-07T11:12:14.463Z,1.00
2018-10-07T11:14:55.701Z,0.80
2018-10-07T11:17:29.286Z,1.10
2018-10-07T11:20:19.011Z,1.10
2018-10-07T11:22:55.694Z,1.27
2018-10-07T11:25:44.627Z,1.20
2018-10-07T11:28:53.376Z,0.97
2018-10-07T11:34:03.801Z,1.00
2018-10-07T11:36:45.651Z,1.20
2018-10-07T11:39:21.285Z,1.10
2018-10-07T11:42:07.453Z,0.90
2018-10-07T11:44:50.723Z,0.70
2018-10-07T11:47:24.601Z,1.37
2018-10-07T11:52:06.120Z,0.83
2018-10-07T11:55:01.385Z,1.13
2018-10-07T11:57:29.001Z,0.83
2018-10-07T11:59:57.071Z,0.90
2018-10-07T12:02:24.637Z,1.03
2018-10-07T12:04:52.297Z,0.87
2018-10-07T12:07:19.895Z,0.80
2018-10-07T12:09:47.334Z,1.20
2018-10-07T12:12:15.292Z,1.13
2018-10-07T12:14:42.854Z,1.30
2018-10-07T12:17:10.808Z,0.60
2018-10-07T12:19:39.024Z,0.70
2018-10-07T12:22:06.851Z,1.00
2018-10-07T12:24:34.450Z,0.77
2018-10-07T12:27:01.962Z,0.90
2018-10-07T12:29:29.667Z,0.80
2018-10-07T12:31:57.316Z,0.73
2018-10-07T12:34:24.842Z,0.77
2018-10-07T12:36:52.315Z,0.87
2018-10-07T12:39:19.753Z,0.83
2018-10-07T12:41:47.616Z,0.80
2018-10-07T12:44:15.082Z,0.90
2018-10-07T12:46:42.564Z,0.93
2018-10-07T12:49:10.110Z,0.80
2018-10-07T12:51:37.575Z,0.67
2018-10-07T12:54:05.144Z,0.93
2018-10-07T12:56:32.534Z,0.63
2018-10-07T12:58:59.980Z,0.77
2018-10-07T13:01:27.810Z,0.90
2018-10-07T13:03:55.501Z,0.90
2018-10-07T13:06:22.991Z,0.73
2018-10-07T13:08:50.442Z,0.80
2018-10-07T13:11:17.978Z,0.90
2018-10-07T13:13:45.479Z,0.70
2018-10-07T13:16:13.162Z,0.90
2018-10-07T13:18:40.606Z,0.80
2018-10-07T13:21:08.202Z,1.00
2018-10-07T13:23:35.866Z,0.77
2018-10-07T13:26:03.401Z,1.20
2018-10-07T13:28:31.044Z,0.80
2018-10-07T13:30:58.627Z,0.97
2018-10-07T13:33:26.118Z,0.90
2018-10-07T13:35:53.575Z,0.70
2018-10-07T13:38:21.205Z,1.20
2018-10-07T13:40:48.694Z,1.60
2018-10-07T13:43:16.196Z,1.10
2018-10-07T13:45:43.856Z,0.70
2018-10-07T13:48:11.336Z,1.13
2018-10-07T13:50:38.873Z,0.90
2018-10-07T13:53:06.359Z,1.07
2018-10-07T13:55:33.830Z,0.80
2018-10-07T13:58:01.326Z,0.90
2018-10-07T14:00:29.114Z,0.93
2018-10-07T14:02:56.615Z,0.93
2018-10-07T14:05:24.232Z,0.90
2018-10-07T14:07:51.766Z,0.93
2018-10-07T14:10:19.229Z,0.87
2018-10-07T14:12:46.774Z,0.83
2018-10-07T14:15:14.346Z,1.20
2018-10-07T14:17:41.830Z,0.93
2018-10-07T14:20:09.302Z,1.20
2018-10-07T14:22:36.796Z,1.00
2018-10-07T14:25:04.409Z,1.20
2018-10-07T14:27:31.854Z,1.20
2018-10-07T14:29:59.331Z,1.00
2018-10-07T14:32:26.791Z,0.90
2018-10-07T14:34:54.271Z,0.73
2018-10-07T14:37:21.958Z,0.70
2018-10-07T14:39:49.440Z,1.07
2018-10-07T14:42:16.884Z,0.83
2018-10-07T14:44:44.382Z,1.20
2018-10-07T14:47:11.888Z,1.20
2018-10-07T14:49:39.415Z,1.00
2018-10-07T14:52:06.864Z,0.90
2018-10-07T14:54:34.585Z,1.07
2018-10-07T14:57:02.016Z,0.90
2018-10-07T14:59:29.462Z,0.90
2018-10-07T15:01:57.040Z,1.40
2018-10-07T15:04:24.491Z,0.80
2018-10-07T15:06:52.085Z,0.90
2018-10-07T15:09:19.537Z,1.00
2018-10-07T15:11:47.026Z,1.03
2018-10-07T15:14:14.474Z,0.80
2018-10-07T15:16:41.975Z,1.20
2018-10-07T15:19:09.576Z,1.20
2018-10-07T15:21:37.044Z,0.93
2018-10-07T15:24:04.591Z,1.03
2018-10-07T15:26:32.170Z,1.20
2018-10-07T15:28:59.815Z,1.47
2018-10-07T15:31:27.322Z,1.60
2018-10-07T15:33:55.035Z,1.20
2018-10-07T15:36:22.653Z,1.30
2018-10-07T15:38:50.155Z,1.10
2018-10-07T15:41:17.588Z,1.03
2018-10-07T15:43:45.127Z,0.90
2018-10-07T15:46:12.599Z,1.20
2018-10-07T15:48:40.035Z,1.00
2018-10-07T15:51:07.538Z,1.10
2018-10-07T15:53:35.098Z,0.90
2018-10-07T15:56:02.581Z,1.00
2018-10-07T15:58:30.031Z,0.93
2018-10-07T16:00:57.474Z,1.00
2018-10-07T16:03:25.148Z,1.07
2018-10-07T16:05:52.646Z,1.20
2018-10-07T16:08:20.165Z,1.10
2018-10-07T16:10:47.648Z,1.30
2018-10-07T16:13:15.146Z,1.00
2018-10-07T16:15:42.589Z,0.90
2018-10-07T16:18:10.126Z,1.00
2018-10-07T16:20:37.564Z,1.00
2018-10-07T16:23:05.124Z,1.53
2018-10-07T16:25:32.750Z,1.27
2018-10-07T16:28:00.199Z,1.00
2018-10-07T16:30:27.768Z,1.30
2018-10-07T16:32:55.262Z,1.10
2018-10-07T16:35:22.772Z,0.97
2018-10-07T16:37:50.203Z,1.30
2018-10-07T16:40:17.723Z,1.03
2018-10-07T16:42:45.170Z,1.30
2018-10-07T16:45:12.722Z,1.20
2018-10-07T16:47:40.164Z,1.10
2018-10-07T16:50:07.671Z,1.20
2018-10-07T16:52:35.133Z,1.47
2018-10-07T16:55:02.654Z,1.47
2018-10-07T16:57:30.134Z,1.10
2018-10-07T16:59:57.605Z,1.30
2018-10-07T17:02:25.112Z,1.90
2018-10-07T17:04:52.582Z,2.10
2018-10-07T17:07:20.127Z,1.60
2018-10-07T17:09:47.593Z,1.07
2018-10-07T17:12:15.088Z,1.10
2018-10-07T17:14:42.555Z,1.40
2018-10-07T17:17:10.039Z,1.30
2018-10-07T17:19:37.499Z,1.33
2018-10-07T17:22:05.006Z,1.20
2018-10-07T17:24:32.543Z,1.10
2018-10-07T17:27:00.020Z,1.37
2018-10-07T17:29:27.573Z,1.17
2018-10-07T17:31:54.993Z,1.40
2018-10-07T17:34:22.431Z,1.50
2018-10-07T17:36:49.933Z,1.27
2018-10-07T17:39:17.364Z,1.60
2018-10-07T17:41:44.902Z,1.80
2018-10-07T17:44:12.370Z,2.33
2018-10-07T17:46:39.911Z,1.83
2018-10-07T17:49:07.548Z,1.50
2018-10-07T17:51:34.934Z,1.40
2018-10-07T17:54:05.279Z,1.40
2018-10-07T17:56:32.736Z,1.60
2018-10-07T17:59:00.440Z,1.80
2018-10-07T18:01:27.952Z,2.13
2018-10-07T18:03:55.455Z,1.60
2018-10-07T18:06:22.904Z,1.40
2018-10-07T18:08:50.440Z,1.80
2018-10-07T18:11:17.881Z,1.50
2018-10-07T18:13:45.307Z,1.63
2018-10-07T18:16:12.850Z,1.50
2018-10-07T18:18:40.472Z,1.40
2018-10-07T18:21:08.015Z,1.40
2018-10-07T18:23:35.488Z,1.20
2018-10-07T18:26:02.949Z,1.60
2018-10-07T18:28:30.431Z,2.00
2018-10-07T18:30:57.881Z,1.10
2018-10-07T18:33:25.305Z,1.60
2018-10-07T18:35:52.875Z,1.30
2018-10-07T18:38:20.316Z,1.60
2018-10-07T18:40:47.781Z,2.00
2018-10-07T18:43:15.280Z,1.80
2018-10-07T18:45:42.723Z,1.50
2018-10-07T18:48:10.214Z,1.70
2018-10-07T18:50:37.660Z,1.73
2018-10-07T18:53:05.208Z,1.67
2018-10-07T18:55:32.631Z,2.30
2018-10-07T18:58:00.085Z,1.73
2018-10-07T19:00:29.051Z,1.87
2018-10-07T19:02:56.785Z,2.03
2018-10-07T19:05:24.938Z,1.53
2018-10-07T19:07:52.433Z,1.50
2018-10-07T19:10:19.991Z,1.23
2018-10-07T19:12:47.463Z,1.90
2018-10-07T19:15:14.984Z,1.70
2018-10-07T19:17:42.495Z,1.80
2018-10-07T19:20:10.085Z,2.20
2018-10-07T19:22:37.523Z,2.10
2018-10-07T19:25:05.068Z,2.00
2018-10-07T19:27:32.575Z,1.93
2018-10-07T19:30:00.070Z,1.60
2018-10-07T19:32:27.564Z,2.10
2018-10-07T19:34:55.039Z,2.60
2018-10-07T19:37:22.842Z,2.13
2018-10-07T19:39:50.234Z,2.07
2018-10-07T19:42:17.866Z,2.70
2018-10-07T19:44:49.219Z,2.03
2018-10-07T19:47:16.751Z,2.33
2018-10-07T19:49:44.290Z,1.90
2018-10-07T19:52:11.827Z,1.90
2018-10-07T19:54:39.768Z,2.17
2018-10-07T19:57:07.273Z,2.30
2018-10-07T19:59:34.863Z,2.80
2018-10-07T20:02:02.447Z,2.57
2018-10-07T20:04:29.879Z,2.77
2018-10-07T20:06:57.363Z,3.00
2018-10-07T20:09:24.864Z,3.20
2018-10-07T20:11:52.459Z,2.67
2018-10-07T20:14:20.039Z,3.10
2018-10-07T20:16:47.507Z,3.60
2018-10-07T20:19:15.133Z,3.50
2018-10-07T20:21:42.644Z,2.57
2018-10-07T20:24:10.347Z,2.97
2018-10-07T20:26:38.394Z,2.60
2018-10-07T20:29:06.606Z,3.07
2018-10-07T20:31:34.200Z,2.20
2018-10-07T20:34:01.804Z,2.83
2018-10-07T20:36:29.275Z,3.47
2018-10-07T20:38:57.045Z,3.97
2018-10-07T20:41:24.500Z,2.90
2018-10-07T20:43:51.974Z,2.63
2018-10-07T20:46:19.481Z,2.80
2018-10-07T20:48:47.064Z,2.60
2018-10-07T20:51:14.511Z,2.50
2018-10-07T20:53:42.043Z,2.57
2018-10-07T20:56:09.490Z,2.80
2018-10-07T20:58:36.924Z,2.63
2018-10-07T21:01:04.479Z,2.50
2018-10-07T21:03:31.960Z,3.03
2018-10-07T21:05:59.531Z,2.90
2018-10-07T21:08:27.079Z,2.93
2018-10-07T21:10:54.561Z,2.20
2018-10-07T21:13:21.971Z,2.83
2018-10-07T21:15:49.472Z,2.27
2018-10-07T21:18:16.914Z,2.50
2018-10-07T21:20:44.371Z,2.87
2018-10-07T21:23:11.859Z,2.20
2018-10-07T21:25:39.331Z,2.70
2018-10-07T21:28:06.770Z,2.77
2018-10-07T21:30:34.230Z,2.70
2018-10-07T21:33:01.704Z,3.00
2018-10-07T21:35:29.206Z,2.83
2018-10-07T21:37:56.711Z,2.80
2018-10-07T21:40:24.177Z,2.83
2018-10-07T21:42:52.011Z,2.67
2018-10-07T21:45:20.026Z,3.00
2018-10-07T21:47:47.511Z,3.00
2018-10-07T21:50:15.144Z,2.80
2018-10-07T21:52:42.606Z,2.40
2018-10-07T21:55:10.059Z,2.50
2018-10-07T21:57:37.654Z,2.73
2018-10-07T22:00:06.683Z,2.67
2018-10-07T22:02:34.162Z,2.43
2018-10-07T22:05:01.686Z,2.83
2018-10-07T22:07:29.182Z,3.00
2018-10-07T22:09:56.646Z,2.60
2018-10-07T22:12:24.102Z,2.67
2018-10-07T22:14:51.542Z,2.30
2018-10-07T22:17:19.090Z,2.10
2018-10-07T22:19:46.515Z,2.27
2018-10-07T22:22:13.986Z,1.90
2018-10-07T22:24:41.467Z,2.40
2018-10-07T22:27:08.940Z,2.13
2018-10-07T22:29:36.395Z,2.30
2018-10-07T22:32:03.892Z,2.70
2018-10-07T22:34:31.309Z,2.20
2018-10-07T22:36:58.885Z,2.10
2018-10-07T22:39:26.354Z,2.40
2018-10-07T22:41:53.848Z,2.00
2018-10-07T22:44:21.241Z,2.20
2018-10-07T22:46:48.845Z,2.30
2018-10-07T22:49:16.257Z,2.27
2018-10-07T22:51:43.678Z,2.60
2018-10-07T22:54:11.074Z,2.20
2018-10-07T22:56:38.446Z,2.73
2018-10-07T22:59:06.125Z,2.90
2018-10-07T23:01:33.553Z,2.60
2018-10-07T23:04:00.940Z,2.90
2018-10-07T23:06:28.325Z,2.67
2018-10-07T23:08:55.692Z,3.60
2018-10-07T23:11:23.068Z,2.90
2018-10-07T23:13:50.484Z,3.30
2018-10-07T23:16:18.074Z,2.80
2018-10-07T23:18:45.580Z,2.70
2018-10-07T23:21:13.060Z,2.50
2018-10-07T23:23:40.476Z,3.17
2018-10-07T23:26:07.918Z,2.90
2018-10-07T23:28:35.299Z,2.63
2018-10-07T23:31:02.690Z,3.20
2018-10-07T23:33:30.181Z,2.50
2018-10-07T23:35:57.568Z,2.83
2018-10-07T23:38:25.004Z,3.40
2018-10-07T23:40:53.755Z,3.50
2018-10-07T23:43:21.204Z,2.60
2018-10-07T23:45:48.801Z,2.53
2018-10-07T23:48:16.129Z,2.63
2018-10-07T23:50:43.504Z,3.10
2018-10-07T23:53:10.893Z,3.00
2018-10-07T23:55:38.376Z,2.63
2018-10-07T23:58:05.862Z,3.10
